Time,TemperatureF,DewpointF,PressureIn,WindDirection,WindDirectionDegrees,WindSpeedMPH,WindSpeedGustMPH,Humidity,HourlyPrecipIn,Conditions,Clouds,dailyrainin,SoftwareType,DateUTC
2013-07-22 00:01:00,79.3,75.1,29.94,SSE,150,3.5,3.5,87,0.00,CLR,,0.00,WeatherDisplay:10.37,2013-07-22 05:01:00,
2013-07-22 00:06:00,79.2,75.3,29.94,SE,134,5.8,5.8,88,0.00,CLR,,0.00,WeatherDisplay:10.37,2013-07-22 05:06:00,
2013-07-22 00:11:00,79.1,75.2,29.93,SE,133,4.6,4.6,88,0.00,CLR,,0.00,WeatherDisplay:10.37,2013-07-22 05:11:00,
2013-07-22 00:16:00,79.1,75.2,29.94,East,84,6.0,6.0,88,0.00,CLR,,0.00,WeatherDisplay:10.37,2013-07-22 05:16:00,
2013-07-22 00:21:00,79.0,75.1,29.94,SE,138,4.6,4.6,88,0.00,CLR,,0.00,WeatherDisplay:10.37,2013-07-22 05:21:00,
2013-07-22 00:26:00,79.0,75.1,29.93,SE,141,5.8,5.8,88,0.00,CLR,,0.00,WeatherDisplay:10.37,2013-07-22 05:26:00,
2013-07-22 00:31:00,78.8,75.3,29.94,SE,145,4.6,4.6,89,0.00,CLR,,0.00,WeatherDisplay:10.37,2013-07-22 05:31:00,
2013-07-22 00:36:00,78.8,75.3,29.94,SSE,156,3.5,3.5,89,0.00,CLR,,0.00,WeatherDisplay:10.37,2013-07-22 05:36:00,
2013-07-22 00:41:00,78.7,75.2,29.94,SSE,148,5.8,5.8,89,0.00,CLR,,0.00,WeatherDisplay:10.37,2013-07-22 05:41:00,
2013-07-22 00:46:00,78.8,75.3,29.94,SSE,148,4.6,4.6,89,0.00,CLR,,0.00,WeatherDisplay:10.37,2013-07-22 05:46:00,
2013-07-22 00:51:00,78.8,75.3,29.94,SE,145,5.8,5.8,89,0.00,CLR,,0.00,WeatherDisplay:10.37,2013-07-22 05:51:00,
2013-07-22 00:56:00,78.8,75.3,29.94,SE,142,8.1,8.1,89,0.00,CLR,,0.00,WeatherDisplay:10.37,2013-07-22 05:56:00,
2013-07-22 01:01:00,79.0,75.5,29.94,SE,133,9.2,9.2,89,0.00,CLR,,0.00,WeatherDisplay:10.37,2013-07-22 06:01:00,
2013-07-22 01:06:00,79.0,75.5,29.93,SE,145,5.8,5.8,89,0.00,CLR,,0.00,WeatherDisplay:10.37,2013-07-22 06:06:00,
2013-07-22 01:11:00,79.0,75.5,29.94,SSE,153,4.6,4.6,89,0.00,CLR,,0.00,WeatherDisplay:10.37,2013-07-22 06:11:00,
2013-07-22 01:16:00,79.0,75.8,29.93,SE,136,9.2,9.2,90,0.00,CLR,,0.00,WeatherDisplay:10.37,2013-07-22 06:16:00,
2013-07-22 01:21:00,79.2,75.7,29.93,SE,132,8.1,8.1,89,0.00,CLR,,0.00,WeatherDisplay:10.37,2013-07-22 06:21:00,
2013-07-22 01:26:00,79.2,75.7,29.93,SSE,156,8.1,8.1,89,0.00,CLR,,0.00,WeatherDisplay:10.37,2013-07-22 06:26:00,
2013-07-22 01:31:00,79.3,75.8,29.93,SE,144,6.9,6.9,89,0.00,CLR,,0.00,WeatherDisplay:10.37,2013-07-22 06:31:00,
2013-07-22 01:36:00,79.3,75.8,29.93,SE,146,5.8,5.8,89,0.00,CLR,,0.00,WeatherDisplay:10.37,2013-07-22 06:36:00,
2013-07-22 01:41:00,79.4,75.9,29.93,SE,133,11.5,11.5,89,0.00,CLR,,0.00,WeatherDisplay:10.37,2013-07-22 06:41:00,
2013-07-22 01:46:00,79.4,75.9,29.93,SE,143,10.4,10.4,89,0.00,CLR,,0.00,WeatherDisplay:10.37,2013-07-22 06:46:00,
2013-07-22 01:51:00,79.4,75.9,29.93,SE,124,6.9,6.9,89,0.00,CLR,,0.00,WeatherDisplay:10.37,2013-07-22 06:51:00,
2013-07-22 01:56:00,79.4,75.9,29.93,SE,136,9.2,9.2,89,0.00,CLR,,0.00,WeatherDisplay:10.37,2013-07-22 06:56:00,
2013-07-22 02:01:00,79.4,76.2,29.93,SE,136,5.8,5.8,90,0.00,CLR,,0.00,WeatherDisplay:10.37,2013-07-22 07:01:00,
2013-07-22 02:06:00,79.4,76.2,29.93,SE,135,10.4,10.4,90,0.00,CLR,,0.00,WeatherDisplay:10.37,2013-07-22 07:06:00,
2013-07-22 02:11:00,79.3,76.1,29.93,SSE,156,9.2,9.2,90,0.00,CLR,,0.00,WeatherDisplay:10.37,2013-07-22 07:11:00,
2013-07-22 02:16:00,79.4,76.2,29.93,SSE,151,6.9,6.9,90,0.00,CLR,,0.00,WeatherDisplay:10.37,2013-07-22 07:16:00,
2013-07-22 02:21:00,79.3,76.1,29.93,SSE,160,6.0,6.0,90,0.00,CLR,,0.00,WeatherDisplay:10.37,2013-07-22 07:21:00,
2013-07-22 02:26:00,79.3,75.8,29.92,SSE,153,6.9,6.9,89,0.00,CLR,,0.00,WeatherDisplay:10.37,2013-07-22 07:26:00,
2013-07-22 02:31:00,79.3,75.8,29.92,SE,131,9.2,9.2,89,0.00,CLR,,0.00,WeatherDisplay:10.37,2013-07-22 07:31:00,
2013-07-22 02:36:00,79.4,75.9,29.92,SSE,159,9.2,9.2,89,0.00,CLR,,0.00,WeatherDisplay:10.37,2013-07-22 07:36:00,
2013-07-22 02:41:00,79.3,75.8,29.92,South,184,11.5,11.5,89,0.00,CLR,,0.00,WeatherDisplay:10.37,2013-07-22 07:41:00,
2013-07-22 02:46:00,79.4,75.9,29.92,South,169,8.1,8.1,89,0.00,CLR,,0.00,WeatherDisplay:10.37,2013-07-22 07:46:00,
2013-07-22 02:51:00,79.3,75.8,29.92,SE,139,10.4,10.4,89,0.00,CLR,,0.00,WeatherDisplay:10.37,2013-07-22 07:51:00,
2013-07-22 02:56:00,79.3,75.8,29.92,SE,144,11.5,11.5,89,0.00,CLR,,0.00,WeatherDisplay:10.37,2013-07-22 07:56:00,
2013-07-22 03:01:00,79.2,75.7,29.92,SE,146,10.4,10.4,89,0.00,CLR,,0.00,WeatherDisplay:10.37,2013-07-22 08:01:00,
2013-07-22 03:06:00,79.2,76.0,29.91,SSE,164,8.1,8.1,90,0.00,CLR,,0.00,WeatherDisplay:10.37,2013-07-22 08:06:00,
2013-07-22 03:11:00,79.1,75.9,29.92,SE,143,11.5,11.5,90,0.00,CLR,,0.00,WeatherDisplay:10.37,2013-07-22 08:11:00,
2013-07-22 03:16:00,79.1,75.9,29.92,SSE,156,10.4,10.4,90,0.00,CLR,,0.00,WeatherDisplay:10.37,2013-07-22 08:16:00,
2013-07-22 03:21:00,79.2,75.7,29.92,SSE,153,9.2,9.2,89,0.00,CLR,,0.00,WeatherDisplay:10.37,2013-07-22 08:21:00,
2013-07-22 03:26:00,79.2,75.7,29.92,SSE,156,11.5,11.5,89,0.00,CLR,,0.00,WeatherDisplay:10.37,2013-07-22 08:26:00,
2013-07-22 03:31:00,79.1,75.6,29.92,South,187,9.2,9.9,89,0.00,CLR,,0.00,WeatherDisplay:10.37,2013-07-22 08:31:00,
2013-07-22 03:36:00,79.1,75.9,29.92,SSE,166,10.4,10.4,90,0.00,CLR,,0.00,WeatherDisplay:10.37,2013-07-22 08:36:00,
2013-07-22 03:41:00,78.9,75.7,29.92,SSE,166,9.2,9.2,90,0.00,CLR,,0.00,WeatherDisplay:10.37,2013-07-22 08:41:00,
2013-07-22 03:46:00,78.8,75.6,29.92,SSE,165,9.2,9.2,90,0.00,CLR,,0.00,WeatherDisplay:10.37,2013-07-22 08:46:00,
2013-07-22 03:51:00,78.6,75.4,29.91,SSE,165,10.4,10.4,90,0.00,CLR,,0.00,WeatherDisplay:10.37,2013-07-22 08:51:00,
2013-07-22 03:56:00,78.6,75.8,29.91,South,186,11.5,11.5,91,0.00,CLR,,0.00,WeatherDisplay:10.37,2013-07-22 08:56:00,
2013-07-22 04:01:00,78.4,75.6,29.91,South,169,6.9,6.9,91,0.00,CLR,,0.00,WeatherDisplay:10.37,2013-07-22 09:01:00,
2013-07-22 04:06:00,78.3,75.5,29.91,South,179,6.9,6.9,91,0.00,CLR,,0.00,WeatherDisplay:10.37,2013-07-22 09:06:00,
2013-07-22 04:11:00,78.1,75.6,29.91,SSE,156,4.6,4.6,92,0.00,CLR,,0.00,WeatherDisplay:10.37,2013-07-22 09:11:00,
2013-07-22 04:16:00,78.1,75.6,29.92,SSE,165,7.0,7.0,92,0.00,CLR,,0.00,WeatherDisplay:10.37,2013-07-22 09:16:00,
2013-07-22 04:21:00,78.0,75.5,29.92,South,174,9.2,9.2,92,0.00,CLR,,0.00,WeatherDisplay:10.37,2013-07-22 09:21:00,
2013-07-22 04:26:00,77.9,75.4,29.92,South,174,3.5,3.5,92,0.00,CLR,,0.00,WeatherDisplay:10.37,2013-07-22 09:26:00,
2013-07-22 04:31:00,77.8,75.3,29.92,SE,134,3.5,3.5,92,0.00,CLR,,0.00,WeatherDisplay:10.37,2013-07-22 09:31:00,
2013-07-22 04:36:00,77.7,75.5,29.92,South,177,4.6,4.6,93,0.00,CLR,,0.00,WeatherDisplay:10.37,2013-07-22 09:36:00,
2013-07-22 04:41:00,77.7,75.5,29.92,SSE,148,4.6,4.6,93,0.00,CLR,,0.00,WeatherDisplay:10.37,2013-07-22 09:41:00,
2013-07-22 04:46:00,77.7,75.5,29.92,SE,140,5.8,5.8,93,0.00,CLR,,0.00,WeatherDisplay:10.37,2013-07-22 09:46:00,
2013-07-22 04:51:00,77.6,75.4,29.92,SSE,150,4.6,4.6,93,0.00,CLR,,0.00,WeatherDisplay:10.37,2013-07-22 09:51:00,
2013-07-22 04:56:00,77.6,75.4,29.92,South,184,3.5,3.5,93,0.00,CLR,,0.00,WeatherDisplay:10.37,2013-07-22 09:56:00,
2013-07-22 05:01:00,77.5,75.3,29.92,South,169,5.8,5.8,93,0.00,CLR,,0.00,WeatherDisplay:10.37,2013-07-22 10:01:00,
2013-07-22 05:06:00,77.5,75.3,29.92,South,177,4.0,4.0,93,0.00,CLR,,0.00,WeatherDisplay:10.37,2013-07-22 10:06:00,
2013-07-22 05:11:00,77.4,75.2,29.92,SSE,160,5.8,5.8,93,0.00,CLR,,0.00,WeatherDisplay:10.37,2013-07-22 10:11:00,
2013-07-22 05:16:00,77.3,75.1,29.92,SE,141,4.6,4.6,93,0.00,CLR,,0.00,WeatherDisplay:10.37,2013-07-22 10:16:00,
2013-07-22 05:21:00,77.3,75.1,29.92,SSE,151,3.5,3.5,93,0.00,CLR,,0.00,WeatherDisplay:10.37,2013-07-22 10:21:00,
2013-07-22 05:26:00,77.2,75.0,29.92,SSE,160,4.0,4.0,93,0.00,CLR,,0.00,WeatherDisplay:10.37,2013-07-22 10:26:00,
2013-07-22 05:31:00,77.1,74.9,29.92,SE,144,2.3,2.8,93,0.00,CLR,,0.00,WeatherDisplay:10.37,2013-07-22 10:31:00,
2013-07-22 05:36:00,77.1,75.2,29.92,SSE,155,5.8,5.8,94,0.00,CLR,,0.00,WeatherDisplay:10.37,2013-07-22 10:36:00,
2013-07-22 05:41:00,77.1,75.2,29.92,SE,134,3.5,3.5,94,0.00,CLR,,0.00,WeatherDisplay:10.37,2013-07-22 10:41:00,
2013-07-22 05:46:00,77.1,75.2,29.92,SSE,165,5.0,5.0,94,0.00,CLR,,0.00,WeatherDisplay:10.37,2013-07-22 10:46:00,
2013-07-22 05:51:00,77.1,75.2,29.93,South,176,3.5,3.5,94,0.00,CLR,,0.00,WeatherDisplay:10.37,2013-07-22 10:51:00,
2013-07-22 05:56:00,77.1,75.2,29.93,SSE,167,3.5,3.5,94,0.00,CLR,,0.00,WeatherDisplay:10.37,2013-07-22 10:56:00,
2013-07-22 06:01:00,77.0,75.1,29.93,SE,139,3.5,3.5,94,0.00,CLR,,0.00,WeatherDisplay:10.37,2013-07-22 11:01:00,
2013-07-22 06:06:00,77.0,75.1,29.93,SE,133,3.5,3.5,94,0.00,CLR,,0.00,WeatherDisplay:10.37,2013-07-22 11:06:00,
2013-07-22 06:11:00,76.9,75.0,29.93,SE,138,4.6,4.6,94,0.00,CLR,,0.00,WeatherDisplay:10.37,2013-07-22 11:11:00,
2013-07-22 06:16:00,76.9,75.0,29.93,SSE,150,5.8,5.8,94,0.00,CLR,,0.00,WeatherDisplay:10.37,2013-07-22 11:16:00,
2013-07-22 06:21:00,76.9,75.0,29.93,SE,143,3.5,3.5,94,0.00,CLR,,0.00,WeatherDisplay:10.37,2013-07-22 11:21:00,
2013-07-22 06:26:00,76.8,74.9,29.93,SSE,154,3.5,3.5,94,0.00,CLR,,0.00,WeatherDisplay:10.37,2013-07-22 11:26:00,
2013-07-22 06:31:00,76.8,74.9,29.93,SE,143,2.3,2.3,94,0.00,CLR,,0.00,WeatherDisplay:10.37,2013-07-22 11:31:00,
2013-07-22 06:36:00,76.8,74.9,29.93,SE,134,1.1,0.0,94,0.00,CLR,,0.00,WeatherDisplay:10.37,2013-07-22 11:36:00,
2013-07-22 06:41:00,76.7,74.8,29.94,ESE,121,0.0,0.0,94,0.00,CLR,,0.00,WeatherDisplay:10.37,2013-07-22 11:41:00,
2013-07-22 06:46:00,76.7,74.8,29.94,ESE,114,0.0,0.0,94,0.00,CLR,,0.00,WeatherDisplay:10.37,2013-07-22 11:46:00,
2013-07-22 06:51:00,76.6,74.7,29.94,ESE,114,0.0,0.0,94,0.00,CLR,,0.00,WeatherDisplay:10.37,2013-07-22 11:51:00,
2013-07-22 06:56:00,76.6,74.7,29.94,ESE,106,1.1,1.1,94,0.00,CLR,,0.00,WeatherDisplay:10.37,2013-07-22 11:56:00,
2013-07-22 07:01:00,76.5,74.6,29.94,ESE,118,3.5,3.5,94,0.00,CLR,,0.00,WeatherDisplay:10.37,2013-07-22 12:01:00,
2013-07-22 07:06:00,76.4,74.5,29.94,ESE,120,3.5,3.5,94,0.00,CLR,,0.00,WeatherDisplay:10.37,2013-07-22 12:06:00,
2013-07-22 07:11:00,76.4,74.5,29.94,ESE,111,2.3,2.3,94,0.00,CLR,,0.00,WeatherDisplay:10.37,2013-07-22 12:11:00,
2013-07-22 07:16:00,76.4,74.5,29.94,ESE,111,2.3,2.3,94,0.00,CLR,,0.00,WeatherDisplay:10.37,2013-07-22 12:16:00,
2013-07-22 07:21:00,76.6,74.7,29.94,ESE,109,1.1,1.1,94,0.00,CLR,,0.00,WeatherDisplay:10.37,2013-07-22 12:21:00,
2013-07-22 07:26:00,76.8,74.9,29.94,SE,125,2.3,2.3,94,0.00,CLR,,0.00,WeatherDisplay:10.37,2013-07-22 12:26:00,
2013-07-22 07:31:00,77.0,75.1,29.94,SE,132,1.1,1.1,94,0.00,CLR,,0.00,WeatherDisplay:10.37,2013-07-22 12:31:00,
2013-07-22 07:36:00,77.2,75.3,29.94,SSE,149,2.3,2.3,94,0.00,CLR,,0.00,WeatherDisplay:10.37,2013-07-22 12:36:00,
2013-07-22 07:41:00,77.6,75.7,29.94,SE,145,2.3,2.3,94,0.00,CLR,,0.00,WeatherDisplay:10.37,2013-07-22 12:41:00,
2013-07-22 07:46:00,78.0,76.1,29.94,SSE,156,3.5,3.5,94,0.00,CLR,,0.00,WeatherDisplay:10.37,2013-07-22 12:46:00,
2013-07-22 07:51:00,78.2,76.3,29.94,SE,145,4.6,4.6,94,0.00,CLR,,0.00,WeatherDisplay:10.37,2013-07-22 12:51:00,
2013-07-22 07:56:00,78.5,76.3,29.94,SSE,156,3.5,3.5,93,0.00,CLR,,0.00,WeatherDisplay:10.37,2013-07-22 12:56:00,
2013-07-22 08:01:00,79.0,76.8,29.95,SE,136,5.8,5.8,93,0.00,CLR,,0.00,WeatherDisplay:10.37,2013-07-22 13:01:00,
2013-07-22 08:06:00,79.4,76.9,29.95,South,169,5.8,5.8,92,0.00,CLR,,0.00,WeatherDisplay:10.37,2013-07-22 13:06:00,
2013-07-22 08:11:00,79.9,77.4,29.95,SSE,150,3.5,4.9,92,0.00,CLR,,0.00,WeatherDisplay:10.37,2013-07-22 13:11:00,
2013-07-22 08:16:00,80.1,77.2,29.95,SSE,156,5.0,5.0,91,0.00,CLR,,0.00,WeatherDisplay:10.37,2013-07-22 13:16:00,
2013-07-22 08:21:00,80.0,76.8,29.95,South,186,6.9,6.9,90,0.00,CLR,,0.00,WeatherDisplay:10.37,2013-07-22 13:21:00,
2013-07-22 08:26:00,80.4,77.2,29.96,SSE,160,5.8,5.8,90,0.00,CLR,,0.00,WeatherDisplay:10.37,2013-07-22 13:26:00,
2013-07-22 08:31:00,80.7,77.2,29.96,SSE,167,6.9,6.9,89,0.00,CLR,,0.00,WeatherDisplay:10.37,2013-07-22 13:31:00,
2013-07-22 08:36:00,80.8,76.9,29.96,SSE,167,10.4,10.4,88,0.00,CLR,,0.00,WeatherDisplay:10.37,2013-07-22 13:36:00,
2013-07-22 08:41:00,80.8,76.9,29.96,SE,145,8.1,8.1,88,0.00,CLR,,0.00,WeatherDisplay:10.37,2013-07-22 13:41:00,
2013-07-22 08:46:00,80.9,77.0,29.96,SSE,167,11.5,11.5,88,0.00,CLR,,0.00,WeatherDisplay:10.37,2013-07-22 13:46:00,
2013-07-22 08:47:00,80.9,77.0,29.96,SSE,167,11.5,11.5,88,0.00,CLR,,0.00,WeatherDisplay:10.37,2013-07-22 13:47:00,
2013-07-22 08:52:00,80.9,76.7,29.96,South,190,11.5,11.5,87,0.00,CLR,,0.00,WeatherDisplay:10.37,2013-07-22 13:52:00,
2013-07-22 08:57:00,81.2,77.0,29.95,SSE,148,11.5,11.5,87,0.00,CLR,,0.00,WeatherDisplay:10.37,2013-07-22 13:57:00,
2013-07-22 09:02:00,81.4,76.8,29.95,South,181,11.5,11.5,86,0.00,CLR,,0.00,WeatherDisplay:10.37,2013-07-22 14:02:00,
2013-07-22 09:07:00,81.5,76.9,29.96,South,181,10.4,10.4,86,0.00,CLR,,0.00,WeatherDisplay:10.37,2013-07-22 14:07:00,
2013-07-22 09:12:00,81.4,76.5,29.96,SSE,162,16.1,16.1,85,0.00,CLR,,0.00,WeatherDisplay:10.37,2013-07-22 14:12:00,
2013-07-22 09:17:00,81.8,77.2,29.96,SSW,195,9.2,9.2,86,0.00,CLR,,0.00,WeatherDisplay:10.37,2013-07-22 14:17:00,
2013-07-22 09:22:00,82.3,76.6,29.96,South,175,16.1,16.1,83,0.00,CLR,,0.00,WeatherDisplay:10.37,2013-07-22 14:22:00,
2013-07-22 09:27:00,82.3,76.6,29.96,South,181,14.0,14.0,83,0.00,CLR,,0.00,WeatherDisplay:10.37,2013-07-22 14:27:00,
2013-07-22 09:32:00,82.3,76.6,29.96,SSE,162,11.5,11.5,83,0.00,CLR,,0.00,WeatherDisplay:10.37,2013-07-22 14:32:00,
2013-07-22 09:37:00,82.3,76.6,29.96,SSW,212,11.5,11.5,83,0.00,CLR,,0.00,WeatherDisplay:10.37,2013-07-22 14:37:00,
2013-07-22 09:42:00,82.3,76.6,29.96,SSE,150,10.4,10.4,83,0.00,CLR,,0.00,WeatherDisplay:10.37,2013-07-22 14:42:00,
2013-07-22 09:47:00,82.3,75.9,29.96,South,186,11.5,11.5,81,0.00,CLR,,0.00,WeatherDisplay:10.37,2013-07-22 14:47:00,
2013-07-22 09:52:00,82.6,76.2,29.96,SSW,210,10.4,10.4,81,0.00,CLR,,0.00,WeatherDisplay:10.37,2013-07-22 14:52:00,
2013-07-22 09:57:00,82.8,76.4,29.95,SSE,167,13.8,13.8,81,0.00,CLR,,0.00,WeatherDisplay:10.37,2013-07-22 14:57:00,
2013-07-22 10:02:00,82.9,76.1,29.96,SSE,163,12.7,12.7,80,0.00,CLR,,0.00,WeatherDisplay:10.37,2013-07-22 15:02:00,
2013-07-22 10:07:00,83.4,76.6,29.95,South,181,11.5,11.5,80,0.00,CLR,,0.00,WeatherDisplay:10.37,2013-07-22 15:07:00,
2013-07-22 10:12:00,84.2,76.6,29.95,SSE,156,16.1,16.1,78,0.00,CLR,,0.00,WeatherDisplay:10.37,2013-07-22 15:12:00,
2013-07-22 10:17:00,84.5,76.1,29.95,SSW,201,16.1,16.1,76,0.00,CLR,,0.00,WeatherDisplay:10.37,2013-07-22 15:17:00,
2013-07-22 10:22:00,84.9,76.9,29.95,South,176,11.5,11.5,77,0.00,CLR,,0.00,WeatherDisplay:10.37,2013-07-22 15:22:00,
2013-07-22 10:27:00,85.4,77.0,29.95,SSW,198,13.8,13.8,76,0.00,CLR,,0.00,WeatherDisplay:10.37,2013-07-22 15:27:00,
2013-07-22 10:32:00,85.5,76.3,29.95,SSW,205,17.0,17.0,74,0.00,CLR,,0.00,WeatherDisplay:10.37,2013-07-22 15:32:00,
2013-07-22 10:37:00,85.6,76.4,29.95,SSE,156,9.2,9.2,74,0.00,CLR,,0.00,WeatherDisplay:10.37,2013-07-22 15:37:00,
2013-07-22 10:42:00,85.6,76.4,29.95,SW,215,11.5,11.5,74,0.00,CLR,,0.00,WeatherDisplay:10.37,2013-07-22 15:42:00,
2013-07-22 10:47:00,85.6,76.4,29.95,SSE,163,8.1,8.1,74,0.00,CLR,,0.00,WeatherDisplay:10.37,2013-07-22 15:47:00,
2013-07-22 10:52:00,86.1,76.8,29.95,South,191,11.5,11.5,74,0.00,CLR,,0.00,WeatherDisplay:10.37,2013-07-22 15:52:00,
2013-07-22 10:57:00,86.5,76.4,29.95,SSW,211,11.5,11.5,72,0.00,CLR,,0.00,WeatherDisplay:10.37,2013-07-22 15:57:00,
2013-07-22 11:02:00,86.9,75.9,29.95,South,181,11.5,11.5,70,0.00,CLR,,0.00,WeatherDisplay:10.37,2013-07-22 16:02:00,
2013-07-22 11:07:00,87.5,75.6,29.95,SSE,156,16.1,16.1,68,0.00,CLR,,0.00,WeatherDisplay:10.37,2013-07-22 16:07:00,
2013-07-22 11:12:00,87.7,75.8,29.95,SSW,207,12.7,12.7,68,0.00,CLR,,0.00,WeatherDisplay:10.37,2013-07-22 16:12:00,
2013-07-22 11:17:00,87.4,76.0,29.95,South,174,11.5,11.5,69,0.00,CLR,,0.00,WeatherDisplay:10.37,2013-07-22 16:17:00,
2013-07-22 11:22:00,87.5,76.1,29.95,SSE,166,15.0,15.0,69,0.00,CLR,,0.00,WeatherDisplay:10.37,2013-07-22 16:22:00,
2013-07-22 11:27:00,88.2,76.3,29.95,SSE,155,12.7,12.7,68,0.00,CLR,,0.00,WeatherDisplay:10.37,2013-07-22 16:27:00,
2013-07-22 11:32:00,88.8,76.0,29.95,SE,143,21.9,21.9,66,0.00,CLR,,0.00,WeatherDisplay:10.37,2013-07-22 16:32:00,
2013-07-22 11:37:00,88.9,76.1,29.95,SSE,159,13.0,13.0,66,0.00,CLR,,0.00,WeatherDisplay:10.37,2013-07-22 16:37:00,
2013-07-22 11:42:00,89.2,75.0,29.95,SSE,159,15.0,15.0,63,0.00,CLR,,0.00,WeatherDisplay:10.37,2013-07-22 16:42:00,
2013-07-22 11:47:00,89.5,75.2,29.95,SSE,149,12.7,12.7,63,0.00,CLR,,0.00,WeatherDisplay:10.37,2013-07-22 16:47:00,
2013-07-22 11:52:00,89.0,74.8,29.95,SSE,156,17.3,17.3,63,0.00,CLR,,0.00,WeatherDisplay:10.37,2013-07-22 16:52:00,
2013-07-22 11:57:00,88.9,74.7,29.95,SSE,154,15.0,15.0,63,0.00,CLR,,0.00,WeatherDisplay:10.37,2013-07-22 16:57:00,
2013-07-22 12:02:00,89.0,74.3,29.95,SSE,149,12.7,12.7,62,0.00,CLR,,0.00,WeatherDisplay:10.37,2013-07-22 17:02:00,
2013-07-22 12:07:00,89.3,74.6,29.95,SSW,200,16.1,16.1,62,0.00,CLR,,0.00,WeatherDisplay:10.37,2013-07-22 17:07:00,
2013-07-22 12:12:00,89.7,74.5,29.95,SE,127,19.6,19.6,61,0.00,CLR,,0.00,WeatherDisplay:10.37,2013-07-22 17:12:00,
2013-07-22 12:17:00,89.9,74.6,29.95,SSW,204,10.4,10.4,61,0.00,CLR,,0.00,WeatherDisplay:10.37,2013-07-22 17:17:00,
2013-07-22 12:22:00,90.0,75.2,29.95,SW,214,12.7,12.7,62,0.00,CLR,,0.00,WeatherDisplay:10.37,2013-07-22 17:22:00,
2013-07-22 12:27:00,90.0,74.7,29.95,South,176,15.0,15.0,61,0.00,CLR,,0.00,WeatherDisplay:10.37,2013-07-22 17:27:00,
2013-07-22 12:32:00,90.7,73.9,29.95,SSW,204,18.4,18.4,58,0.00,CLR,,0.00,WeatherDisplay:10.37,2013-07-22 17:32:00,
2013-07-22 12:37:00,90.8,74.5,29.94,SSW,204,13.8,13.8,59,0.00,CLR,,0.00,WeatherDisplay:10.37,2013-07-22 17:37:00,
2013-07-22 12:42:00,91.3,73.9,29.94,South,174,25.3,25.3,57,0.00,CLR,,0.00,WeatherDisplay:10.37,2013-07-22 17:42:00,
2013-07-22 12:47:00,91.7,74.3,29.94,South,169,18.4,18.4,57,0.00,CLR,,0.00,WeatherDisplay:10.37,2013-07-22 17:47:00,
2013-07-22 12:52:00,91.7,74.3,29.94,SSE,162,19.6,19.6,57,0.00,CLR,,0.00,WeatherDisplay:10.37,2013-07-22 17:52:00,
2013-07-22 12:57:00,91.9,73.4,29.93,South,191,13.8,13.8,55,0.00,CLR,,0.00,WeatherDisplay:10.37,2013-07-22 17:57:00,
2013-07-22 13:02:00,92.1,73.6,29.93,SSE,148,19.6,19.6,55,0.00,CLR,,0.00,WeatherDisplay:10.37,2013-07-22 18:02:00,
2013-07-22 13:07:00,92.4,73.9,29.93,South,170,18.4,18.4,55,0.00,CLR,,0.00,WeatherDisplay:10.37,2013-07-22 18:07:00,
2013-07-22 13:12:00,92.1,73.1,29.93,SSE,155,19.0,19.0,54,0.00,CLR,,0.00,WeatherDisplay:10.37,2013-07-22 18:12:00,
2013-07-22 13:18:00,91.7,72.7,29.93,South,174,16.1,16.1,54,0.00,CLR,,0.00,WeatherDisplay:10.37,2013-07-22 18:18:00,
2013-07-22 13:23:00,93.0,74.4,29.92,SW,217,19.6,19.6,55,0.00,CLR,,0.00,WeatherDisplay:10.37,2013-07-22 18:23:00,
2013-07-22 13:28:00,93.3,72.5,29.92,South,188,12.7,12.7,51,0.00,CLR,,0.00,WeatherDisplay:10.37,2013-07-22 18:28:00,
2013-07-22 13:33:00,93.2,72.4,29.92,SSE,165,19.6,19.6,51,0.00,CLR,,0.00,WeatherDisplay:10.37,2013-07-22 18:33:00,
2013-07-22 13:40:00,93.2,73.0,29.92,South,183,17.3,17.3,52,0.00,CLR,,0.00,WeatherDisplay:10.37,2013-07-22 18:40:00,
2013-07-22 13:45:00,93.3,72.5,29.92,SE,145,19.6,19.6,51,0.00,CLR,,0.00,WeatherDisplay:10.37,2013-07-22 18:45:00,
2013-07-22 13:50:00,93.5,71.5,29.92,SE,145,23.0,23.0,49,0.00,CLR,,0.00,WeatherDisplay:10.37,2013-07-22 18:50:00,
2013-07-22 13:55:00,93.9,71.8,29.92,SSW,207,19.6,19.6,49,0.00,CLR,,0.00,WeatherDisplay:10.37,2013-07-22 18:55:00,
2013-07-22 14:01:00,94.1,72.6,29.91,SSE,165,15.0,15.0,50,0.00,CLR,,0.00,WeatherDisplay:10.37,2013-07-22 19:01:00,
2013-07-22 14:06:00,94.1,72.6,29.91,SSE,149,15.0,15.0,50,0.00,CLR,,0.00,WeatherDisplay:10.37,2013-07-22 19:06:00,
2013-07-22 14:11:00,94.0,72.5,29.91,South,173,23.0,23.0,50,0.00,CLR,,0.00,WeatherDisplay:10.37,2013-07-22 19:11:00,
2013-07-22 14:16:00,94.0,73.1,29.91,SSE,168,19.6,19.6,51,0.00,CLR,,0.00,WeatherDisplay:10.37,2013-07-22 19:16:00,
2013-07-22 14:22:00,94.4,73.5,29.91,SSE,150,12.7,12.7,51,0.00,CLR,,0.00,WeatherDisplay:10.37,2013-07-22 19:22:00,
2013-07-22 14:27:00,93.7,71.7,29.91,SSE,162,17.3,17.3,49,0.00,CLR,,0.00,WeatherDisplay:10.37,2013-07-22 19:27:00,
2013-07-22 14:32:00,94.0,71.9,29.91,SSW,204,19.6,19.6,49,0.00,CLR,,0.00,WeatherDisplay:10.37,2013-07-22 19:32:00,
2013-07-22 14:37:00,94.7,73.8,29.90,South,187,11.5,11.5,51,0.00,CLR,,0.00,WeatherDisplay:10.37,2013-07-22 19:37:00,
2013-07-22 14:43:00,94.8,72.7,29.90,South,169,11.5,11.5,49,0.00,CLR,,0.00,WeatherDisplay:10.37,2013-07-22 19:43:00,
2013-07-22 14:48:00,95.1,72.9,29.90,South,169,13.8,13.8,49,0.00,CLR,,0.00,WeatherDisplay:10.37,2013-07-22 19:48:00,
2013-07-22 14:53:00,95.0,72.8,29.90,South,169,14.0,14.0,49,0.00,CLR,,0.00,WeatherDisplay:10.37,2013-07-22 19:53:00,
2013-07-22 14:58:00,95.3,71.9,29.90,South,180,19.6,19.6,47,0.00,CLR,,0.00,WeatherDisplay:10.37,2013-07-22 19:58:00,
2013-07-22 15:03:00,95.0,71.6,29.90,SSW,193,18.4,18.4,47,0.00,CLR,,0.00,WeatherDisplay:10.37,2013-07-22 20:03:00,
2013-07-22 15:08:00,94.9,72.1,29.89,SSW,200,13.8,13.8,48,0.00,CLR,,0.00,WeatherDisplay:10.37,2013-07-22 20:08:00,
2013-07-22 15:14:00,94.9,72.1,29.89,South,179,15.0,15.0,48,0.00,CLR,,0.00,WeatherDisplay:10.37,2013-07-22 20:14:00,
2013-07-22 15:16:00,94.6,71.9,29.89,SSE,148,18.4,18.4,48,0.00,CLR,,0.00,WeatherDisplay:10.37,2013-07-22 20:16:00,
2013-07-22 15:17:00,94.6,71.9,29.89,SSE,148,18.4,18.4,48,0.00,CLR,,0.00,WeatherDisplay:10.37,2013-07-22 20:17:00,
2013-07-22 15:22:00,94.9,71.5,29.89,SSE,168,18.4,18.4,47,0.00,CLR,,0.00,WeatherDisplay:10.37,2013-07-22 20:22:00,
2013-07-22 15:27:00,94.8,70.8,29.89,South,184,13.8,13.8,46,0.00,CLR,,0.00,WeatherDisplay:10.37,2013-07-22 20:27:00,
2013-07-22 15:32:00,94.9,70.9,29.89,SSW,203,23.0,23.0,46,0.00,CLR,,0.00,WeatherDisplay:10.37,2013-07-22 20:32:00,
2013-07-22 15:37:00,95.5,71.4,29.88,SSW,197,11.5,11.5,46,0.00,CLR,,0.00,WeatherDisplay:10.37,2013-07-22 20:37:00,
2013-07-22 15:42:00,95.9,71.1,29.88,SE,128,17.3,17.3,45,0.00,CLR,,0.00,WeatherDisplay:10.37,2013-07-22 20:42:00,
2013-07-22 15:43:00,95.9,70.5,29.88,SSE,149,19.6,19.6,44,0.00,CLR,,0.00,WeatherDisplay:10.37,2013-07-22 20:43:00,
2013-07-22 15:48:00,96.0,71.2,29.88,SSE,149,11.5,11.5,45,0.00,CLR,,0.00,WeatherDisplay:10.37,2013-07-22 20:48:00,
2013-07-22 15:53:00,96.2,72.7,29.88,ESE,106,16.0,16.0,47,0.00,CLR,,0.00,WeatherDisplay:10.37,2013-07-22 20:53:00,
2013-07-22 15:58:00,95.7,72.2,29.88,ESE,118,17.3,17.3,47,0.00,CLR,,0.00,WeatherDisplay:10.37,2013-07-22 20:58:00,
2013-07-22 16:03:00,96.2,72.7,29.88,ESE,119,20.7,20.7,47,0.00,CLR,,0.00,WeatherDisplay:10.37,2013-07-22 21:03:00,
2013-07-22 16:08:00,95.2,71.8,29.88,SSE,164,18.4,18.4,47,0.00,CLR,,0.00,WeatherDisplay:10.37,2013-07-22 21:08:00,
2013-07-22 16:13:00,95.1,72.3,29.87,SE,130,17.3,17.3,48,0.00,CLR,,0.00,WeatherDisplay:10.37,2013-07-22 21:13:00,
2013-07-22 16:18:00,95.3,72.5,29.87,SE,131,18.0,18.0,48,0.00,CLR,,0.00,WeatherDisplay:10.37,2013-07-22 21:18:00,
2013-07-22 16:23:00,95.0,72.8,29.87,ESE,120,15.0,15.0,49,0.00,CLR,,0.00,WeatherDisplay:10.37,2013-07-22 21:23:00,
2013-07-22 16:28:00,95.1,72.9,29.87,SSE,153,15.0,15.0,49,0.00,CLR,,0.00,WeatherDisplay:10.37,2013-07-22 21:28:00,
2013-07-22 16:33:00,95.1,72.3,29.86,SSE,166,16.0,16.0,48,0.00,CLR,,0.00,WeatherDisplay:10.37,2013-07-22 21:33:00,
2013-07-22 16:38:00,95.2,73.0,29.86,SE,137,19.6,19.6,49,0.00,CLR,,0.00,WeatherDisplay:10.37,2013-07-22 21:38:00,
2013-07-22 16:43:00,95.5,72.7,29.86,SSE,156,16.0,16.0,48,0.00,CLR,,0.00,WeatherDisplay:10.37,2013-07-22 21:43:00,
2013-07-22 16:48:00,95.4,72.0,29.86,SE,142,15.0,15.0,47,0.00,CLR,,0.00,WeatherDisplay:10.37,2013-07-22 21:48:00,
2013-07-22 16:53:00,95.2,73.0,29.86,South,169,12.7,12.7,49,0.00,CLR,,0.00,WeatherDisplay:10.37,2013-07-22 21:53:00,
2013-07-22 16:58:00,95.1,72.3,29.86,SSE,156,18.4,18.4,48,0.00,CLR,,0.00,WeatherDisplay:10.37,2013-07-22 21:58:00,
2013-07-22 17:03:00,95.2,72.4,29.86,SSE,153,19.6,19.6,48,0.00,CLR,,0.00,WeatherDisplay:10.37,2013-07-22 22:03:00,
2013-07-22 17:08:00,95.2,71.8,29.86,ESE,119,16.1,16.1,47,0.00,CLR,,0.00,WeatherDisplay:10.37,2013-07-22 22:08:00,
2013-07-22 17:13:00,95.4,72.6,29.86,SSE,149,13.8,13.8,48,0.00,CLR,,0.00,WeatherDisplay:10.37,2013-07-22 22:13:00,
2013-07-22 17:18:00,95.3,72.5,29.86,SSE,165,13.8,13.8,48,0.00,CLR,,0.00,WeatherDisplay:10.37,2013-07-22 22:18:00,
2013-07-22 17:23:00,95.3,72.5,29.86,ESE,111,13.8,13.8,48,0.00,CLR,,0.00,WeatherDisplay:10.37,2013-07-22 22:23:00,
2013-07-22 17:28:00,95.0,72.2,29.86,SE,129,19.6,19.6,48,0.00,CLR,,0.00,WeatherDisplay:10.37,2013-07-22 22:28:00,
2013-07-22 17:33:00,94.4,72.3,29.86,SE,143,11.5,11.5,49,0.00,CLR,,0.00,WeatherDisplay:10.37,2013-07-22 22:33:00,
2013-07-22 17:38:00,94.7,72.6,29.86,South,179,15.0,15.0,49,0.00,CLR,,0.00,WeatherDisplay:10.37,2013-07-22 22:38:00,
2013-07-22 17:43:00,95.0,72.2,29.86,SSE,166,19.6,19.6,48,0.00,CLR,,0.00,WeatherDisplay:10.37,2013-07-22 22:43:00,
2013-07-22 17:48:00,94.9,72.1,29.86,SSE,147,11.5,11.5,48,0.00,CLR,,0.00,WeatherDisplay:10.37,2013-07-22 22:48:00,
2013-07-22 17:53:00,94.5,72.4,29.85,SE,142,17.3,17.3,49,0.00,CLR,,0.00,WeatherDisplay:10.37,2013-07-22 22:53:00,
2013-07-22 17:58:00,94.1,72.6,29.85,ESE,122,17.3,17.3,50,0.00,CLR,,0.00,WeatherDisplay:10.37,2013-07-22 22:58:00,
2013-07-22 18:03:00,94.2,72.1,29.85,SSE,147,19.6,19.6,49,0.00,CLR,,0.00,WeatherDisplay:10.37,2013-07-22 23:03:00,
2013-07-22 18:08:00,94.2,72.7,29.85,SE,124,18.4,18.4,50,0.00,CLR,,0.00,WeatherDisplay:10.37,2013-07-22 23:08:00,
2013-07-22 18:13:00,94.1,72.0,29.85,ESE,110,16.1,16.1,49,0.00,CLR,,0.00,WeatherDisplay:10.37,2013-07-22 23:13:00,
2013-07-22 18:18:00,94.1,72.6,29.85,SSE,156,11.5,11.5,50,0.00,CLR,,0.00,WeatherDisplay:10.37,2013-07-22 23:18:00,
2013-07-22 18:23:00,94.3,72.2,29.85,ESE,120,16.1,16.1,49,0.00,CLR,,0.00,WeatherDisplay:10.37,2013-07-22 23:23:00,
2013-07-22 18:28:00,94.0,71.9,29.85,SSE,148,15.0,15.0,49,0.00,CLR,,0.00,WeatherDisplay:10.37,2013-07-22 23:28:00,
2013-07-22 18:33:00,93.7,72.3,29.85,SE,142,11.5,11.5,50,0.00,CLR,,0.00,WeatherDisplay:10.37,2013-07-22 23:33:00,
2013-07-22 18:38:00,93.9,72.4,29.85,ESE,122,11.5,11.5,50,0.00,CLR,,0.00,WeatherDisplay:10.37,2013-07-22 23:38:00,
2013-07-22 18:43:00,93.7,72.3,29.85,SSE,154,16.1,16.1,50,0.00,CLR,,0.00,WeatherDisplay:10.37,2013-07-22 23:43:00,
2013-07-22 18:48:00,93.5,72.1,29.85,SE,128,19.6,19.6,50,0.00,CLR,,0.00,WeatherDisplay:10.37,2013-07-22 23:48:00,
2013-07-22 18:53:00,93.1,72.3,29.85,ESE,106,15.0,15.0,51,0.00,CLR,,0.00,WeatherDisplay:10.37,2013-07-22 23:53:00,
2013-07-22 18:58:00,92.9,72.1,29.85,SE,130,13.8,13.8,51,0.00,CLR,,0.00,WeatherDisplay:10.37,2013-07-22 23:58:00,
2013-07-22 19:03:00,92.6,72.4,29.85,SE,136,19.6,19.6,52,0.00,CLR,,0.00,WeatherDisplay:10.37,2013-07-23 00:03:00,
2013-07-22 19:08:00,92.4,72.8,29.85,SE,131,16.1,16.1,53,0.00,CLR,,0.00,WeatherDisplay:10.37,2013-07-23 00:08:00,
2013-07-22 19:13:00,92.2,72.6,29.85,SSE,150,16.1,16.1,53,0.00,CLR,,0.00,WeatherDisplay:10.37,2013-07-23 00:13:00,
2013-07-22 19:18:00,92.0,73.0,29.85,SE,134,17.3,17.3,54,0.00,CLR,,0.00,WeatherDisplay:10.37,2013-07-23 00:18:00,
2013-07-22 19:23:00,91.8,72.8,29.86,SE,128,21.9,21.9,54,0.00,CLR,,0.00,WeatherDisplay:10.37,2013-07-23 00:23:00,
2013-07-22 19:28:00,91.6,73.1,29.86,SE,127,13.8,13.8,55,0.00,CLR,,0.00,WeatherDisplay:10.37,2013-07-23 00:28:00,
2013-07-22 19:33:00,91.3,72.9,29.86,SSE,153,19.6,19.6,55,0.00,CLR,,0.00,WeatherDisplay:10.37,2013-07-23 00:33:00,
2013-07-22 19:38:00,91.0,73.1,29.86,SE,142,17.3,17.3,56,0.00,CLR,,0.00,WeatherDisplay:10.37,2013-07-23 00:38:00,
2013-07-22 19:43:00,90.8,73.5,29.86,SE,137,17.3,17.3,57,0.00,CLR,,0.00,WeatherDisplay:10.37,2013-07-23 00:43:00,
2013-07-22 19:48:00,90.6,73.3,29.87,SE,146,23.0,23.0,57,0.00,CLR,,0.00,WeatherDisplay:10.37,2013-07-23 00:48:00,
2013-07-22 19:53:00,90.2,73.9,29.87,SSE,165,18.4,18.4,59,0.00,CLR,,0.00,WeatherDisplay:10.37,2013-07-23 00:53:00,
2013-07-22 19:58:00,89.9,74.2,29.87,SE,133,19.6,19.6,60,0.00,CLR,,0.00,WeatherDisplay:10.37,2013-07-23 00:58:00,
2013-07-22 20:03:00,89.6,74.4,29.87,SE,131,13.8,13.8,61,0.00,CLR,,0.00,WeatherDisplay:10.37,2013-07-23 01:03:00,
2013-07-22 20:08:00,89.3,74.6,29.87,ESE,117,20.7,20.7,62,0.00,CLR,,0.00,WeatherDisplay:10.37,2013-07-23 01:08:00,
2013-07-22 20:13:00,89.0,74.8,29.87,SSE,164,10.0,10.7,63,0.00,CLR,,0.00,WeatherDisplay:10.37,2013-07-23 01:13:00,
2013-07-22 20:18:00,88.7,75.0,29.87,SSE,162,15.0,15.0,64,0.00,CLR,,0.00,WeatherDisplay:10.37,2013-07-23 01:18:00,
2013-07-22 20:23:00,88.4,75.1,29.87,ESE,122,16.1,16.1,65,0.00,CLR,,0.00,WeatherDisplay:10.37,2013-07-23 01:23:00,
2013-07-22 20:28:00,88.0,75.7,29.88,SE,136,18.4,18.4,67,0.00,CLR,,0.00,WeatherDisplay:10.37,2013-07-23 01:28:00,
2013-07-22 20:33:00,87.5,75.6,29.88,SE,132,21.9,21.9,68,0.00,CLR,,0.00,WeatherDisplay:10.37,2013-07-23 01:33:00,
2013-07-22 20:38:00,87.2,75.8,29.88,ESE,120,20.7,20.7,69,0.00,CLR,,0.00,WeatherDisplay:10.37,2013-07-23 01:38:00,
2013-07-22 20:43:00,86.9,75.5,29.89,SE,137,11.5,11.5,69,0.00,CLR,,0.00,WeatherDisplay:10.37,2013-07-23 01:43:00,
2013-07-22 20:48:00,86.7,75.7,29.89,SE,126,13.0,13.0,70,0.00,CLR,,0.00,WeatherDisplay:10.37,2013-07-23 01:48:00,
2013-07-22 20:53:00,86.5,76.0,29.89,SE,142,11.5,11.5,71,0.00,CLR,,0.00,WeatherDisplay:10.37,2013-07-23 01:53:00,
2013-07-22 20:58:00,86.2,75.7,29.89,SE,142,12.7,12.7,71,0.00,CLR,,0.00,WeatherDisplay:10.37,2013-07-23 01:58:00,
2013-07-22 21:03:00,86.1,76.0,29.89,SE,134,18.4,18.4,72,0.00,CLR,,0.00,WeatherDisplay:10.37,2013-07-23 02:03:00,
2013-07-22 21:08:00,85.9,75.8,29.89,SSE,149,11.5,11.5,72,0.00,CLR,,0.00,WeatherDisplay:10.37,2013-07-23 02:08:00,
2013-07-22 21:13:00,85.7,76.0,29.90,SE,126,12.7,12.7,73,0.00,CLR,,0.00,WeatherDisplay:10.37,2013-07-23 02:13:00,
2013-07-22 21:18:00,85.5,75.9,29.90,SE,135,11.5,11.5,73,0.00,CLR,,0.00,WeatherDisplay:10.37,2013-07-23 02:18:00,
2013-07-22 21:23:00,85.3,76.1,29.90,SE,135,13.8,13.8,74,0.00,CLR,,0.00,WeatherDisplay:10.37,2013-07-23 02:23:00,
2013-07-22 21:28:00,85.1,75.9,29.90,ESE,118,9.2,9.2,74,0.00,CLR,,0.00,WeatherDisplay:10.37,2013-07-23 02:28:00,
2013-07-22 21:33:00,84.9,76.1,29.91,SE,125,9.2,9.2,75,0.00,CLR,,0.00,WeatherDisplay:10.37,2013-07-23 02:33:00,
2013-07-22 21:38:00,84.7,75.9,29.91,SE,127,9.2,10.1,75,0.00,CLR,,0.00,WeatherDisplay:10.37,2013-07-23 02:38:00,
2013-07-22 21:43:00,84.6,76.2,29.91,SE,132,11.5,11.5,76,0.00,CLR,,0.00,WeatherDisplay:10.37,2013-07-23 02:43:00,
2013-07-22 21:48:00,84.5,76.1,29.91,SE,125,13.8,13.8,76,0.00,CLR,,0.00,WeatherDisplay:10.37,2013-07-23 02:48:00,
2013-07-22 21:53:00,84.3,76.3,29.92,SE,141,11.5,11.5,77,0.00,CLR,,0.00,WeatherDisplay:10.37,2013-07-23 02:53:00,
2013-07-22 21:58:00,84.2,76.2,29.92,SE,131,10.4,10.4,77,0.00,CLR,,0.00,WeatherDisplay:10.37,2013-07-23 02:58:00,
2013-07-22 22:03:00,84.0,76.4,29.92,SE,124,15.0,15.0,78,0.00,CLR,,0.00,WeatherDisplay:10.37,2013-07-23 03:03:00,
2013-07-22 22:08:00,83.9,76.3,29.92,SSE,149,17.3,17.3,78,0.00,CLR,,0.00,WeatherDisplay:10.37,2013-07-23 03:08:00,
2013-07-22 22:13:00,83.7,76.5,29.92,SE,134,13.8,13.8,79,0.00,CLR,,0.00,WeatherDisplay:10.37,2013-07-23 03:13:00,
2013-07-22 22:18:00,83.6,76.4,29.92,ESE,123,13.8,13.8,79,0.00,CLR,,0.00,WeatherDisplay:10.37,2013-07-23 03:18:00,
2013-07-22 22:23:00,83.4,76.6,29.92,ESE,123,6.9,6.9,80,0.00,CLR,,0.00,WeatherDisplay:10.37,2013-07-23 03:23:00,
2013-07-22 22:28:00,83.3,76.5,29.93,SE,138,13.8,13.8,80,0.00,CLR,,0.00,WeatherDisplay:10.37,2013-07-23 03:28:00,
2013-07-22 22:33:00,83.2,76.8,29.93,ESE,121,12.7,12.7,81,0.00,CLR,,0.00,WeatherDisplay:10.37,2013-07-23 03:33:00,
2013-07-22 22:38:00,83.0,76.6,29.93,SE,143,8.1,8.1,81,0.00,CLR,,0.00,WeatherDisplay:10.37,2013-07-23 03:38:00,
2013-07-22 22:43:00,82.8,76.4,29.93,ESE,117,11.5,11.5,81,0.00,CLR,,0.00,WeatherDisplay:10.37,2013-07-23 03:43:00,
2013-07-22 22:48:00,82.7,76.6,29.93,ESE,103,6.9,6.9,82,0.00,CLR,,0.00,WeatherDisplay:10.37,2013-07-23 03:48:00,
2013-07-22 22:53:00,82.6,76.5,29.93,SE,134,11.5,11.5,82,0.00,CLR,,0.00,WeatherDisplay:10.37,2013-07-23 03:53:00,
2013-07-22 22:58:00,82.4,76.3,29.93,SE,124,12.7,12.7,82,0.00,CLR,,0.00,WeatherDisplay:10.37,2013-07-23 03:58:00,
2013-07-22 23:01:00,82.4,76.3,29.93,SE,125,17.3,17.3,82,0.00,CLR,,0.00,WeatherDisplay:10.37,2013-07-23 04:01:00,
2013-07-22 23:03:00,82.3,76.3,29.93,SE,128,9.2,9.2,82,0.00,CLR,,0.00,WeatherDisplay:10.37,2013-07-23 04:03:00,
2013-07-22 23:05:00,82.3,76.3,29.93,SSE,149,16.1,16.1,82,0.00,CLR,,0.00,WeatherDisplay:10.37,2013-07-23 04:05:00,
2013-07-22 23:07:00,82.2,76.2,29.93,ESE,103,16.0,16.0,82,0.00,CLR,,0.00,WeatherDisplay:10.37,2013-07-23 04:07:00,
2013-07-22 23:10:00,82.2,76.2,29.93,SE,134,12.7,12.7,82,0.00,CLR,,0.00,WeatherDisplay:10.37,2013-07-23 04:10:00,
2013-07-22 23:16:00,82.1,76.4,29.93,SE,125,12.0,12.0,83,0.00,CLR,,0.00,WeatherDisplay:10.37,2013-07-23 04:16:00,
2013-07-22 23:21:00,81.9,76.2,29.93,SE,146,15.0,15.0,83,0.00,CLR,,0.00,WeatherDisplay:10.37,2013-07-23 04:21:00,
2013-07-22 23:26:00,81.9,76.2,29.93,SSE,156,12.7,12.7,83,0.00,CLR,,0.00,WeatherDisplay:10.37,2013-07-23 04:26:00,
2013-07-22 23:31:00,81.7,76.0,29.93,SSE,157,13.8,13.8,83,0.00,CLR,,0.00,WeatherDisplay:10.37,2013-07-23 04:31:00,
2013-07-22 23:36:00,81.6,76.3,29.93,SSE,150,15.0,15.0,84,0.00,CLR,,0.00,WeatherDisplay:10.37,2013-07-23 04:36:00,
2013-07-22 23:41:00,81.5,76.2,29.93,ESE,121,11.5,11.5,84,0.00,CLR,,0.00,WeatherDisplay:10.37,2013-07-23 04:41:00,
2013-07-22 23:46:00,81.4,76.1,29.93,South,172,11.5,11.5,84,0.00,CLR,,0.00,WeatherDisplay:10.37,2013-07-23 04:46:00,
2013-07-22 23:52:00,81.3,76.0,29.93,SE,133,12.7,12.7,84,0.00,CLR,,0.00,WeatherDisplay:10.37,2013-07-23 04:52:00,
2013-07-22 23:57:00,81.2,76.3,29.94,SE,137,11.5,11.5,85,0.00,CLR,,0.00,WeatherDisplay:10.37,2013-07-23 04:57:00,